createdAt,value
2018-01-26T00:00:09.016Z,7.07
2018-01-26T00:02:36.538Z,7.87
2018-01-26T00:05:04.176Z,7.17
2018-01-26T00:07:31.694Z,7.80
2018-01-26T00:09:59.200Z,7.23
2018-01-26T00:12:26.721Z,9.03
2018-01-26T00:14:54.222Z,8.30
2018-01-26T00:17:21.724Z,8.13
2018-01-26T00:19:49.210Z,7.60
2018-01-26T00:22:17.610Z,8.20
2018-01-26T00:24:45.125Z,9.47
2018-01-26T00:27:12.740Z,8.03
2018-01-26T00:29:40.389Z,9.77
2018-01-26T00:32:07.885Z,8.43
2018-01-26T00:37:26.683Z,12.20
2018-01-26T00:39:54.934Z,7.90
2018-01-26T00:42:22.473Z,6.10
2018-01-26T00:44:50.078Z,8.90
2018-01-26T00:47:17.634Z,9.13
2018-01-26T00:49:45.143Z,9.03
2018-01-26T00:52:12.630Z,7.23
2018-01-26T00:54:40.130Z,6.90
2018-01-26T00:57:07.863Z,6.57
2018-01-26T00:59:35.381Z,6.93
2018-01-26T01:02:02.862Z,7.77
2018-01-26T01:04:30.592Z,9.30
2018-01-26T01:06:58.066Z,7.00
2018-01-26T01:09:25.572Z,6.33
2018-01-26T01:11:53.043Z,8.10
2018-01-26T01:14:20.538Z,8.33
2018-01-26T01:16:48.100Z,7.47
2018-01-26T01:19:15.633Z,8.27
2018-01-26T01:21:43.578Z,7.67
2018-01-26T01:24:11.106Z,6.97
2018-01-26T01:26:38.605Z,8.00
2018-01-26T01:29:06.134Z,9.47
2018-01-26T01:31:33.621Z,8.20
2018-01-26T01:34:01.139Z,8.37
2018-01-26T01:36:28.629Z,9.83
2018-01-26T01:38:56.141Z,7.27
2018-01-26T01:41:23.647Z,7.00
2018-01-26T01:43:51.915Z,7.70
2018-01-26T01:46:19.440Z,8.80
2018-01-26T01:48:58.786Z,9.40
2018-01-26T01:51:26.318Z,6.20
2018-01-26T01:53:53.817Z,7.10
2018-01-26T01:56:22.077Z,7.77
2018-01-26T01:58:49.670Z,7.07
2018-01-26T02:01:17.182Z,6.27
2018-01-26T02:03:44.714Z,6.95
2018-01-26T02:06:12.220Z,8.40
2018-01-26T02:08:40.472Z,7.57
2018-01-26T02:11:08.016Z,7.57
2018-01-26T02:13:35.521Z,7.07
2018-01-26T02:16:03.783Z,7.60
2018-01-26T02:18:31.292Z,6.43
2018-01-26T02:20:58.814Z,7.35
2018-01-26T02:23:26.319Z,7.15
2018-01-26T02:25:53.829Z,6.90
2018-01-26T02:28:22.093Z,8.77
2018-01-26T02:30:50.370Z,7.47
2018-01-26T02:33:17.863Z,8.18
2018-01-26T02:35:45.472Z,9.40
2018-01-26T02:38:12.975Z,8.55
2018-01-26T02:40:40.928Z,7.77
2018-01-26T02:43:09.182Z,9.10
2018-01-26T02:45:36.686Z,8.93
2018-01-26T02:48:04.220Z,9.45
2018-01-26T02:50:31.778Z,8.00
2018-01-26T02:52:59.324Z,8.10
2018-01-26T02:55:26.908Z,9.43
2018-01-26T02:57:54.430Z,9.70
2018-01-26T03:00:21.945Z,11.35
2018-01-26T03:02:49.470Z,13.95
2018-01-26T03:05:16.990Z,13.67
2018-01-26T03:07:44.516Z,13.97
2018-01-26T03:10:12.010Z,13.48
2018-01-26T03:12:39.529Z,16.12
2018-01-26T03:15:07.083Z,16.90
2018-01-26T03:17:34.579Z,14.77
2018-01-26T03:20:02.108Z,14.52
2018-01-26T03:22:29.603Z,16.05
2018-01-26T03:24:57.144Z,17.48
2018-01-26T03:27:24.654Z,17.48
2018-01-26T03:29:52.930Z,18.20
2018-01-26T03:32:21.194Z,22.48
2018-01-26T03:34:49.559Z,20.80
2018-01-26T03:37:17.029Z,19.67
2018-01-26T03:39:44.560Z,24.65
2018-01-26T03:42:12.086Z,24.75
2018-01-26T03:44:39.610Z,24.37
2018-01-26T03:47:07.168Z,22.87
2018-01-26T03:49:35.894Z,21.85
2018-01-26T03:52:03.406Z,24.23
2018-01-26T03:54:31.685Z,22.87
2018-01-26T03:56:59.979Z,25.80
2018-01-26T03:59:27.495Z,26.52
2018-01-26T04:01:55.009Z,24.90
2018-01-26T04:04:22.508Z,25.10
2018-01-26T04:06:50.056Z,30.85
2018-01-26T04:09:17.604Z,25.15
2018-01-26T04:11:45.126Z,27.23
2018-01-26T04:14:12.618Z,25.65
2018-01-26T04:16:40.131Z,25.35
2018-01-26T04:19:08.420Z,27.90
2018-01-26T04:21:35.930Z,27.00
2018-01-26T04:24:03.480Z,28.05
2018-01-26T04:26:30.977Z,30.62
2018-01-26T04:28:58.488Z,27.35
2018-01-26T04:31:26.002Z,28.60
2018-01-26T04:33:53.530Z,30.12
2018-01-26T04:36:21.030Z,30.77
2018-01-26T04:38:48.580Z,26.20
2018-01-26T04:41:16.077Z,26.58
2018-01-26T04:43:43.625Z,25.90
2018-01-26T04:46:11.139Z,24.85
2018-01-26T04:48:38.692Z,25.48
2018-01-26T04:51:06.966Z,23.85
2018-01-26T04:53:34.464Z,26.27
2018-01-26T04:56:02.219Z,24.17
2018-01-26T04:58:29.770Z,24.58
2018-01-26T05:00:58.027Z,25.83
2018-01-26T05:03:25.553Z,25.65
2018-01-26T05:05:53.139Z,23.83
2018-01-26T05:08:20.638Z,22.60
2018-01-26T05:10:48.419Z,24.95
2018-01-26T05:13:15.918Z,22.20
2018-01-26T05:15:43.425Z,24.65
2018-01-26T05:18:10.921Z,23.30
2018-01-26T05:20:38.433Z,24.50
2018-01-26T05:23:05.958Z,25.48
2018-01-26T05:25:33.489Z,25.83
2018-01-26T05:28:01.281Z,27.95
2018-01-26T05:30:28.786Z,25.40
2018-01-26T05:32:56.344Z,26.15
2018-01-26T05:35:23.842Z,26.75
2018-01-26T05:37:51.400Z,26.80
2018-01-26T05:40:18.959Z,28.23
2018-01-26T05:42:46.472Z,25.52
2018-01-26T05:45:13.956Z,29.33
2018-01-26T05:47:41.478Z,28.23
2018-01-26T05:50:08.993Z,28.15
2018-01-26T05:52:36.538Z,28.92
2018-01-26T05:55:04.034Z,29.65
2018-01-26T05:57:32.445Z,26.83
2018-01-26T06:00:00.087Z,28.60
2018-01-26T06:02:27.672Z,27.95
2018-01-26T06:04:55.190Z,28.87
2018-01-26T06:07:22.722Z,28.50
2018-01-26T06:09:50.255Z,27.90
2018-01-26T06:12:17.942Z,27.77
2018-01-26T06:14:45.473Z,30.70
2018-01-26T06:17:12.992Z,32.53
2018-01-26T06:19:40.542Z,30.40
2018-01-26T06:22:08.809Z,31.35
2018-01-26T06:24:37.119Z,34.70
2018-01-26T06:27:04.669Z,34.08
2018-01-26T06:29:32.931Z,30.12
2018-01-26T06:32:00.470Z,37.45
2018-01-26T06:34:28.301Z,34.15
2018-01-26T06:36:55.855Z,35.17
2018-01-26T06:39:23.850Z,35.67
2018-01-26T06:41:51.449Z,33.30
2018-01-26T06:44:19.706Z,37.05
2018-01-26T06:46:47.222Z,34.88
2018-01-26T06:49:14.732Z,39.08
2018-01-26T06:51:42.281Z,37.65
2018-01-26T06:54:09.788Z,37.65
2018-01-26T06:56:37.296Z,41.20
2018-01-26T06:59:05.273Z,41.15
2018-01-26T07:01:33.592Z,39.78
2018-01-26T07:04:01.127Z,43.50
2018-01-26T07:06:29.396Z,44.72
2018-01-26T07:08:57.761Z,45.00
2018-01-26T07:11:25.302Z,42.45
2018-01-26T07:13:52.852Z,46.55
2018-01-26T07:16:20.583Z,42.25
2018-01-26T07:18:48.104Z,46.17
2018-01-26T07:21:15.690Z,47.28
2018-01-26T07:23:43.283Z,47.08
2018-01-26T07:26:10.784Z,42.03
2018-01-26T07:28:38.294Z,39.70
2018-01-26T07:31:05.965Z,43.90
2018-01-26T07:33:33.466Z,41.90
2018-01-26T07:36:01.753Z,40.65
2018-01-26T07:38:30.053Z,54.40
2018-01-26T07:40:57.560Z,46.45
2018-01-26T07:43:25.099Z,48.92
2018-01-26T07:45:52.688Z,43.15
2018-01-26T07:48:20.454Z,46.17
2018-01-26T07:50:48.157Z,46.25
2018-01-26T07:53:15.676Z,47.38
2018-01-26T07:55:43.242Z,42.30
2018-01-26T07:58:11.513Z,43.97
2018-01-26T08:00:39.787Z,45.15
2018-01-26T08:03:08.054Z,45.55
2018-01-26T08:05:36.505Z,52.40
2018-01-26T08:08:04.017Z,52.58
2018-01-26T08:10:32.316Z,51.67
2018-01-26T08:12:59.813Z,52.15
2018-01-26T08:15:28.871Z,47.10
2018-01-26T08:17:56.416Z,47.67
2018-01-26T08:20:23.914Z,44.50
2018-01-26T08:22:51.430Z,47.05
2018-01-26T08:25:18.930Z,56.33
2018-01-26T08:27:46.516Z,47.62
2018-01-26T08:30:15.433Z,48.20
2018-01-26T08:32:48.002Z,43.33
2018-01-26T08:35:16.637Z,46.53
2018-01-26T08:37:44.337Z,46.35
2018-01-26T08:40:12.291Z,37.50
2018-01-26T08:42:39.810Z,43.58
2018-01-26T08:45:07.353Z,42.62
2018-01-26T08:47:34.863Z,52.28
2018-01-26T08:50:02.357Z,43.30
2018-01-26T08:52:29.895Z,43.05
2018-01-26T08:54:58.187Z,45.95
2018-01-26T08:57:25.772Z,46.70
2018-01-26T08:59:53.278Z,38.25
2018-01-26T09:02:20.766Z,51.45
2018-01-26T09:04:48.279Z,47.80
2018-01-26T09:07:15.970Z,50.55
2018-01-26T09:09:44.480Z,47.42
2018-01-26T09:12:12.018Z,44.78
2018-01-26T09:14:39.551Z,45.60
2018-01-26T09:17:07.056Z,45.53
2018-01-26T09:19:34.909Z,44.20
2018-01-26T09:22:02.426Z,41.73
2018-01-26T09:24:29.926Z,40.47
2018-01-26T09:26:57.514Z,38.03
2018-01-26T09:29:25.043Z,39.90
2018-01-26T09:31:52.624Z,40.50
2018-01-26T09:34:20.157Z,40.28
2018-01-26T09:36:47.817Z,40.50
2018-01-26T09:39:15.389Z,40.97
2018-01-26T09:41:42.943Z,31.57
2018-01-26T09:44:10.471Z,32.10
2018-01-26T09:46:38.493Z,35.70
2018-01-26T09:49:07.794Z,31.03
2018-01-26T09:51:36.397Z,31.43
2018-01-26T09:54:04.360Z,28.87
2018-01-26T09:56:31.888Z,31.37
2018-01-26T09:58:59.539Z,29.77
2018-01-26T10:01:27.831Z,34.23
2018-01-26T10:03:56.086Z,35.03
2018-01-26T10:06:24.395Z,38.28
2018-01-26T10:08:51.911Z,35.77
2018-01-26T10:11:19.407Z,33.20
2018-01-26T10:13:47.490Z,32.57
2018-01-26T10:16:15.005Z,34.63
2018-01-26T10:18:42.546Z,34.43
2018-01-26T10:21:10.046Z,31.23
2018-01-26T10:23:37.587Z,31.77
2018-01-26T10:26:05.288Z,32.37
2018-01-26T10:28:32.854Z,29.47
2018-01-26T10:31:00.404Z,29.47
2018-01-26T10:33:27.898Z,31.57
2018-01-26T10:35:55.833Z,31.20
2018-01-26T10:38:23.329Z,37.20
2018-01-26T10:40:51.120Z,28.60
2018-01-26T10:43:18.727Z,27.90
2018-01-26T10:45:46.423Z,32.03
2018-01-26T10:48:13.929Z,28.60
2018-01-26T10:50:41.514Z,27.97
2018-01-26T10:53:09.011Z,27.30
2018-01-26T10:55:36.693Z,28.60
2018-01-26T10:58:04.186Z,28.43
2018-01-26T11:00:31.695Z,28.03
2018-01-26T11:02:59.210Z,24.53
2018-01-26T11:05:26.755Z,26.00
2018-01-26T11:07:54.238Z,25.90
2018-01-26T11:10:21.734Z,25.00
2018-01-26T11:12:49.305Z,25.63
2018-01-26T11:15:16.798Z,26.40
2018-01-26T11:17:44.307Z,25.20
2018-01-26T11:20:11.783Z,28.50
2018-01-26T11:22:39.292Z,27.80
2018-01-26T11:25:06.811Z,31.40
2018-01-26T11:27:34.326Z,32.53
2018-01-26T11:30:01.827Z,32.73
2018-01-26T11:32:29.345Z,29.53
2018-01-26T11:34:57.110Z,28.27
2018-01-26T11:37:24.692Z,32.63
2018-01-26T11:39:57.680Z,29.43
2018-01-26T11:42:30.055Z,31.60
2018-01-26T11:44:57.600Z,30.57
2018-01-26T11:47:25.141Z,29.63
2018-01-26T11:49:53.054Z,30.87
2018-01-26T11:52:20.573Z,31.20
2018-01-26T11:54:48.910Z,29.10
2018-01-26T11:57:16.556Z,29.77
2018-01-26T11:59:44.191Z,32.27
2018-01-26T12:02:11.693Z,34.30
2018-01-26T12:04:40.032Z,32.60
2018-01-26T12:07:07.740Z,33.27
2018-01-26T12:09:35.332Z,30.57
2018-01-26T12:12:03.637Z,31.10
2018-01-26T12:14:31.148Z,33.73
2018-01-26T12:16:58.656Z,31.63
2018-01-26T12:19:26.286Z,30.70
2018-01-26T12:21:53.843Z,31.77
2018-01-26T12:24:22.101Z,33.93
2018-01-26T12:26:50.385Z,29.83
2018-01-26T12:29:17.925Z,33.60
2018-01-26T12:31:45.457Z,30.03
2018-01-26T12:34:12.950Z,36.57
2018-01-26T12:36:40.472Z,28.77
2018-01-26T12:39:08.002Z,33.33
2018-01-26T12:41:35.539Z,30.73
2018-01-26T12:44:03.822Z,30.40
2018-01-26T12:46:31.584Z,29.27
2018-01-26T12:48:59.870Z,31.30
2018-01-26T12:51:28.185Z,30.53
2018-01-26T12:53:55.716Z,30.50
2018-01-26T12:56:23.249Z,31.23
2018-01-26T12:58:50.761Z,29.27
2018-01-26T13:01:18.317Z,32.17
2018-01-26T13:03:45.843Z,30.40
2018-01-26T13:06:14.111Z,31.17
2018-01-26T13:08:42.474Z,29.83
2018-01-26T13:11:10.373Z,28.77
2018-01-26T13:13:37.957Z,32.70
2018-01-26T13:16:05.465Z,30.10
2018-01-26T13:18:33.740Z,30.23
2018-01-26T13:21:01.230Z,31.07
2018-01-26T13:23:28.770Z,30.77
2018-01-26T13:25:57.185Z,31.80
2018-01-26T13:28:24.774Z,27.60
2018-01-26T13:30:52.270Z,30.33
2018-01-26T13:33:19.799Z,34.13
2018-01-26T13:44:27.513Z,31.77
2018-01-26T13:46:55.319Z,34.93
2018-01-26T13:49:22.844Z,31.77
2018-01-26T13:51:50.342Z,32.50
2018-01-26T13:54:18.774Z,30.70
2018-01-26T13:56:47.982Z,29.97
2018-01-26T13:59:15.521Z,32.90
2018-01-26T14:01:43.024Z,31.30
2018-01-26T14:04:10.673Z,32.30
2018-01-26T14:06:38.685Z,31.23
2018-01-26T14:09:06.677Z,31.00
2018-01-26T14:11:34.193Z,32.17
2018-01-26T14:14:01.682Z,31.67
2018-01-26T14:16:29.189Z,33.67
2018-01-26T14:18:56.679Z,29.80
2018-01-26T14:21:24.959Z,33.00
2018-01-26T14:23:53.235Z,33.83
2018-01-26T14:26:20.770Z,34.27
2018-01-26T14:28:48.462Z,31.60
2018-01-26T14:31:16.058Z,30.10
2018-01-26T14:33:43.553Z,31.47
2018-01-26T14:36:11.076Z,33.40
2018-01-26T14:38:38.601Z,38.83
2018-01-26T14:41:06.129Z,30.63
2018-01-26T14:43:33.680Z,32.77
2018-01-26T14:46:01.243Z,32.30
2018-01-26T14:48:28.743Z,29.47
2018-01-26T14:50:56.242Z,32.03
2018-01-26T14:53:23.777Z,31.27
2018-01-26T14:55:51.279Z,29.93
2018-01-26T14:58:18.797Z,32.97
2018-01-26T15:00:46.345Z,32.10
2018-01-26T15:03:13.916Z,29.60
2018-01-26T15:05:41.434Z,31.23
2018-01-26T15:08:09.702Z,31.70
2018-01-26T15:10:38.114Z,32.23
2018-01-26T15:13:05.706Z,31.30
2018-01-26T15:15:33.186Z,33.90
2018-01-26T15:18:00.875Z,30.47
2018-01-26T15:20:28.531Z,30.57
2018-01-26T15:22:56.036Z,34.03
2018-01-26T15:25:23.549Z,33.80
2018-01-26T15:27:51.543Z,26.73
2018-01-26T15:30:19.066Z,31.37
2018-01-26T15:32:49.243Z,29.77
2018-01-26T15:35:16.744Z,32.60
2018-01-26T15:37:45.206Z,32.17
2018-01-26T15:40:12.724Z,29.80
2018-01-26T15:42:40.275Z,37.23
2018-01-26T15:45:07.794Z,35.13
2018-01-26T15:47:36.110Z,35.80
2018-01-26T15:50:03.833Z,37.47
2018-01-26T15:52:32.157Z,40.47
2018-01-26T15:54:59.709Z,39.17
2018-01-26T15:57:27.321Z,41.67
2018-01-26T15:59:54.903Z,39.10
2018-01-26T16:02:23.190Z,39.43
2018-01-26T16:04:54.828Z,44.97
2018-01-26T16:07:22.739Z,44.07
2018-01-26T16:09:50.362Z,41.73
2018-01-26T16:12:18.723Z,43.73
2018-01-26T16:14:46.396Z,39.20
2018-01-26T16:17:13.998Z,39.77
2018-01-26T16:19:41.615Z,38.93
2018-01-26T16:22:10.097Z,39.60
2018-01-26T16:24:37.611Z,39.97
2018-01-26T16:27:05.141Z,38.93
2018-01-26T16:29:32.926Z,45.33
2018-01-26T16:32:00.451Z,48.07
2018-01-26T16:34:28.014Z,37.23
2018-01-26T16:36:55.518Z,46.40
2018-01-26T16:39:23.624Z,38.33
2018-01-26T16:41:51.297Z,38.77
2018-01-26T16:44:19.577Z,36.97
2018-01-26T16:46:47.897Z,44.60
2018-01-26T16:49:15.412Z,42.80
2018-01-26T16:51:42.911Z,40.03
2018-01-26T16:54:10.535Z,40.57
2018-01-26T16:56:38.060Z,46.07
2018-01-26T16:59:05.590Z,50.00
2018-01-26T17:01:33.085Z,45.97
2018-01-26T17:04:00.616Z,42.47
2018-01-26T17:06:28.336Z,50.25
2018-01-26T17:08:56.006Z,45.60
2018-01-26T17:11:23.793Z,47.37
2018-01-26T17:13:51.394Z,42.10
2018-01-26T21:35:47.029Z,60.70
2018-01-26T21:38:14.686Z,59.83
2018-01-26T21:40:42.190Z,62.47
2018-01-26T21:43:09.704Z,63.95
2018-01-26T21:45:37.219Z,66.97
2018-01-26T21:48:05.045Z,57.10
2018-01-26T21:50:32.567Z,58.65
2018-01-26T21:53:00.070Z,58.20
2018-01-26T21:55:27.735Z,62.55
2018-01-26T21:57:55.225Z,52.33
2018-01-26T22:00:22.753Z,58.30
2018-01-26T22:02:50.272Z,66.70
2018-01-26T22:05:17.967Z,63.97
2018-01-26T22:07:45.450Z,59.60
2018-01-26T22:10:12.953Z,56.00
2018-01-26T22:12:41.360Z,63.05
2018-01-26T22:15:08.909Z,61.37
2018-01-26T22:17:36.417Z,57.70
2018-01-26T22:20:03.911Z,63.35
2018-01-26T22:22:31.480Z,60.70
2018-01-26T22:24:59.011Z,59.83
2018-01-26T22:27:26.721Z,59.40
2018-01-26T22:29:54.359Z,58.22
2018-01-26T22:32:21.884Z,59.88
2018-01-26T22:34:49.604Z,58.90
2018-01-26T22:37:17.251Z,62.00
2018-01-26T22:39:44.902Z,60.22
2018-01-26T22:42:12.427Z,61.92
2018-01-26T22:44:39.954Z,61.25
2018-01-26T22:47:07.441Z,54.65
2018-01-26T22:49:34.954Z,53.80
2018-01-26T22:52:02.440Z,56.05
2018-01-26T22:54:29.934Z,57.30
2018-01-26T22:56:58.205Z,54.85
2018-01-26T22:59:26.479Z,54.60
2018-01-26T23:01:54.749Z,60.30
2018-01-26T23:04:22.258Z,54.17
2018-01-26T23:06:49.738Z,58.42
2018-01-26T23:09:17.257Z,56.75
2018-01-26T23:11:44.840Z,53.10
2018-01-26T23:14:12.349Z,58.15
2018-01-26T23:16:40.632Z,59.60
2018-01-26T23:19:09.031Z,54.85
2018-01-26T23:21:36.527Z,55.55
2018-01-26T23:24:04.122Z,59.38
2018-01-26T23:26:32.438Z,53.15
2018-01-26T23:28:59.954Z,54.70
2018-01-26T23:31:28.238Z,59.53
2018-01-26T23:33:56.514Z,54.75
2018-01-26T23:36:24.104Z,51.97
2018-01-26T23:38:51.719Z,48.85
2018-01-26T23:41:19.371Z,53.10
2018-01-26T23:43:46.894Z,55.47
2018-01-26T23:46:14.421Z,57.05
2018-01-26T23:48:41.934Z,61.45
2018-01-26T23:51:09.659Z,57.75
2018-01-26T23:53:37.169Z,64.60
2018-01-26T23:56:05.584Z,61.10
2018-01-26T23:58:33.090Z,55.95
